createdAt,value
2023-01-31T00:00:27.326Z,2.7
2023-01-31T00:01:30.489Z,2.6
2023-01-31T00:02:34.241Z,2.7
2023-01-31T00:03:39.007Z,2.6
2023-01-31T00:04:43.678Z,2.7
2023-01-31T00:05:46.464Z,2.7
2023-01-31T00:06:49.278Z,2.6
2023-01-31T00:07:53.365Z,2.6
2023-01-31T00:08:56.443Z,2.7
2023-01-31T00:09:59.588Z,2.7
2023-01-31T00:11:02.855Z,2.7
2023-01-31T00:12:05.740Z,2.7
2023-01-31T00:13:08.841Z,2.7
2023-01-31T00:14:12.402Z,2.7
2023-01-31T00:15:15.502Z,2.7
2023-01-31T00:16:19.237Z,2.7
2023-01-31T00:17:22.364Z,2.7
2023-01-31T00:18:25.595Z,2.7
2023-01-31T00:19:29.039Z,2.7
2023-01-31T00:20:32.595Z,2.6
2023-01-31T00:21:38.073Z,2.6
2023-01-31T00:22:42.141Z,2.6
2023-01-31T00:23:45.603Z,2.6
2023-01-31T00:24:49.048Z,2.6
2023-01-31T00:25:51.762Z,2.6
2023-01-31T00:26:55.116Z,2.5
2023-01-31T00:27:57.659Z,2.6
2023-01-31T00:29:00.931Z,2.6
2023-01-31T00:30:04.279Z,2.5
2023-01-31T00:31:07.473Z,2.5
2023-01-31T00:32:11.318Z,2.5
2023-01-31T00:33:14.421Z,2.5
2023-01-31T00:34:18.054Z,2.5
2023-01-31T00:35:23.030Z,2.5
2023-01-31T00:36:26.450Z,2.5
2023-01-31T00:37:30.110Z,2.5
2023-01-31T00:38:33.499Z,2.5
2023-01-31T00:39:39.404Z,2.5
2023-01-31T00:40:42.307Z,2.5
2023-01-31T00:41:45.119Z,2.5
2023-01-31T00:42:48.200Z,2.5
2023-01-31T00:43:51.101Z,2.5
2023-01-31T00:44:54.137Z,2.5
2023-01-31T00:45:57.327Z,2.5
2023-01-31T00:47:00.228Z,2.5
2023-01-31T00:48:03.396Z,2.4
2023-01-31T00:49:06.489Z,2.5
2023-01-31T00:50:09.884Z,2.5
2023-01-31T00:51:12.969Z,2.4
2023-01-31T00:52:17.004Z,2.4
2023-01-31T00:53:20.085Z,2.3
2023-01-31T00:54:38.936Z,2.4
2023-01-31T00:55:42.989Z,2.4
2023-01-31T00:56:45.711Z,2.4
2023-01-31T00:57:48.158Z,2.4
2023-01-31T00:58:51.846Z,2.4
2023-01-31T00:59:55.133Z,2.4
2023-01-31T01:00:58.041Z,2.4
2023-01-31T01:02:02.477Z,2.4
2023-01-31T01:03:05.843Z,2.4
2023-01-31T01:04:09.202Z,2.4
2023-01-31T01:05:12.299Z,2.4
2023-01-31T01:06:14.804Z,2.3
2023-01-31T01:07:18.303Z,2.3
2023-01-31T01:08:21.546Z,2.4
2023-01-31T01:09:24.604Z,2.4
2023-01-31T01:10:27.982Z,2.4
2023-01-31T01:11:32.619Z,2.4
2023-01-31T01:12:36.481Z,2.4
2023-01-31T01:13:39.518Z,2.3
2023-01-31T01:14:42.894Z,2.3
2023-01-31T01:15:46.467Z,2.3
2023-01-31T01:16:49.321Z,2.3
2023-01-31T01:17:53.179Z,2.3
2023-01-31T01:18:56.256Z,2.4
2023-01-31T01:19:59.678Z,2.3
2023-01-31T01:21:02.124Z,2.4
2023-01-31T01:22:04.925Z,2.4
2023-01-31T01:23:07.487Z,2.4
2023-01-31T01:24:11.352Z,2.4
2023-01-31T01:25:15.326Z,2.4
2023-01-31T01:26:18.199Z,2.4
2023-01-31T01:27:22.094Z,2.3
2023-01-31T01:28:24.534Z,2.3
2023-01-31T01:29:28.335Z,2.4
2023-01-31T01:30:32.177Z,2.3
2023-01-31T01:31:37.472Z,2.3
2023-01-31T01:32:41.047Z,2.4
2023-01-31T01:33:44.464Z,2.4
2023-01-31T01:34:47.445Z,2.4
2023-01-31T01:35:51.240Z,2.4
2023-01-31T01:36:54.321Z,2.4
2023-01-31T01:37:57.774Z,2.3
2023-01-31T01:39:00.478Z,2.3
2023-01-31T01:40:04.117Z,2.3
2023-01-31T01:41:07.526Z,2.3
2023-01-31T01:42:10.433Z,2.3
2023-01-31T01:43:14.320Z,2.3
2023-01-31T01:44:17.023Z,2.2
2023-01-31T01:45:24.483Z,2.2
2023-01-31T01:46:29.248Z,2.2
2023-01-31T01:47:33.132Z,2.2
2023-01-31T01:48:36.692Z,2.2
2023-01-31T01:49:39.776Z,2.2
2023-01-31T01:50:42.569Z,2.2
2023-01-31T01:51:45.652Z,2.3
2023-01-31T01:52:48.912Z,2.3
2023-01-31T01:53:51.769Z,2.3
2023-01-31T01:54:55.147Z,2.3
2023-01-31T01:55:58.282Z,2.3
2023-01-31T01:57:02.404Z,2.3
2023-01-31T01:58:05.519Z,2.2
2023-01-31T01:59:08.975Z,2.3
2023-01-31T02:00:12.763Z,2.3
2023-01-31T02:01:16.795Z,2.3
2023-01-31T02:02:19.723Z,2.3
2023-01-31T02:03:22.905Z,2.3
2023-01-31T02:04:26.982Z,2.3
2023-01-31T02:05:30.837Z,2.3
2023-01-31T02:06:34.954Z,2.3
2023-01-31T02:07:39.246Z,2.3
2023-01-31T02:08:42.430Z,2.3
2023-01-31T02:09:45.216Z,2.3
2023-01-31T02:10:48.256Z,2.3
2023-01-31T02:11:52.161Z,2.3
2023-01-31T02:12:55.902Z,2.3
2023-01-31T02:13:59.001Z,2.3
2023-01-31T02:15:02.268Z,2.3
2023-01-31T02:16:04.833Z,2.3
2023-01-31T02:17:07.768Z,2.3
2023-01-31T02:18:10.954Z,2.3
2023-01-31T02:19:13.955Z,2.3
2023-01-31T02:20:17.337Z,2.4
2023-01-31T02:21:19.789Z,2.4
2023-01-31T02:22:22.813Z,2.4
2023-01-31T02:23:26.523Z,2.4
2023-01-31T02:24:29.671Z,2.3
2023-01-31T02:25:32.489Z,2.3
2023-01-31T02:26:35.320Z,2.3
2023-01-31T02:27:39.012Z,2.3
2023-01-31T02:28:42.084Z,2.4
2023-01-31T02:29:45.406Z,2.3
2023-01-31T02:30:49.601Z,2.3
2023-01-31T02:31:52.591Z,2.4
2023-01-31T02:32:55.759Z,2.4
2023-01-31T02:33:58.355Z,2.3
2023-01-31T02:35:01.409Z,2.3
2023-01-31T02:36:04.743Z,2.3
2023-01-31T02:37:07.552Z,2.3
2023-01-31T02:38:10.587Z,2.2
2023-01-31T02:39:13.377Z,2.3
2023-01-31T02:40:16.810Z,2.2
2023-01-31T02:41:20.108Z,2.2
2023-01-31T02:42:25.035Z,2.3
2023-01-31T02:43:28.544Z,2.3
2023-01-31T02:44:31.643Z,2.3
2023-01-31T02:45:34.372Z,2.3
2023-01-31T02:46:38.832Z,2.3
2023-01-31T02:47:41.107Z,2.3
2023-01-31T02:48:43.851Z,2.3
2023-01-31T02:49:47.147Z,2.3
2023-01-31T02:50:49.575Z,2.3
2023-01-31T02:51:52.660Z,2.3
2023-01-31T02:52:55.660Z,2.3
2023-01-31T02:53:58.163Z,2.3
2023-01-31T02:55:02.203Z,2.3
2023-01-31T02:56:05.289Z,2.3
2023-01-31T02:57:08.669Z,2.3
2023-01-31T02:58:11.526Z,2.3
2023-01-31T02:59:14.442Z,2.4
2023-01-31T03:00:17.192Z,2.4
2023-01-31T03:01:21.163Z,2.4
2023-01-31T03:02:25.397Z,2.4
2023-01-31T03:03:28.604Z,2.4
2023-01-31T03:04:30.549Z,2.4
2023-01-31T03:05:33.907Z,2.4
2023-01-31T03:06:37.283Z,2.3
2023-01-31T03:07:40.574Z,2.3
2023-01-31T03:08:43.285Z,2.3
2023-01-31T03:09:46.655Z,2.2
2023-01-31T03:10:49.180Z,2.2
2023-01-31T03:11:51.790Z,2.2
2023-01-31T03:12:54.919Z,2.2
2023-01-31T03:13:58.020Z,2.2
2023-01-31T03:15:01.178Z,2.2
2023-01-31T03:16:04.605Z,2.2
2023-01-31T03:17:08.027Z,2.2
2023-01-31T03:18:11.246Z,2.2
2023-01-31T03:19:14.518Z,2.2
2023-01-31T03:20:18.954Z,2.2
2023-01-31T03:21:22.385Z,2.2
2023-01-31T03:22:25.106Z,2.2
2023-01-31T03:23:28.018Z,2.2
2023-01-31T03:24:30.803Z,2.2
2023-01-31T03:25:34.189Z,2.2
2023-01-31T03:26:39.002Z,2.2
2023-01-31T03:27:42.567Z,2.2
2023-01-31T03:28:45.359Z,2.3
2023-01-31T03:29:48.753Z,2.3
2023-01-31T03:30:52.769Z,2.3
2023-01-31T03:31:57.712Z,2.3
2023-01-31T03:33:01.157Z,2.3
2023-01-31T03:34:04.675Z,2.3
2023-01-31T03:35:08.035Z,2.3
2023-01-31T03:36:10.915Z,2.3
2023-01-31T03:37:13.354Z,2.3
2023-01-31T03:38:18.157Z,2.3
2023-01-31T03:39:21.452Z,2.3
2023-01-31T03:40:25.169Z,2.4
2023-01-31T03:41:28.082Z,2.4
2023-01-31T03:42:31.524Z,2.4
2023-01-31T03:43:34.531Z,2.4
2023-01-31T03:44:37.997Z,2.4
2023-01-31T03:45:41.018Z,2.4
2023-01-31T03:46:44.265Z,2.4
2023-01-31T03:47:48.286Z,2.5
2023-01-31T03:48:51.012Z,2.5
2023-01-31T03:49:55.140Z,2.5
2023-01-31T03:50:57.962Z,2.4
2023-01-31T03:52:00.818Z,2.5
2023-01-31T03:53:03.827Z,2.5
2023-01-31T03:54:07.246Z,2.5
2023-01-31T03:55:10.526Z,2.5
2023-01-31T03:56:13.853Z,2.5
2023-01-31T03:57:17.676Z,2.5
2023-01-31T03:58:21.068Z,2.5
2023-01-31T03:59:23.798Z,2.5
2023-01-31T04:00:26.974Z,2.5
2023-01-31T04:01:30.303Z,2.5
2023-01-31T04:02:34.815Z,2.5
2023-01-31T04:03:38.591Z,2.5
2023-01-31T04:04:41.779Z,2.6
2023-01-31T04:05:45.523Z,2.6
2023-01-31T04:06:48.377Z,2.6
2023-01-31T04:07:51.372Z,2.6
2023-01-31T04:08:55.065Z,2.6
2023-01-31T04:09:58.425Z,2.6
2023-01-31T04:11:01.171Z,2.6
2023-01-31T04:12:04.339Z,2.7
2023-01-31T04:13:07.765Z,2.7
2023-01-31T04:14:11.357Z,2.6
2023-01-31T04:15:14.946Z,2.6
2023-01-31T04:16:18.889Z,2.6
2023-01-31T04:17:22.014Z,2.7
2023-01-31T04:18:25.474Z,2.6
2023-01-31T04:19:28.511Z,2.6
2023-01-31T04:20:32.544Z,2.6
2023-01-31T04:21:37.082Z,2.6
2023-01-31T04:22:40.001Z,2.6
2023-01-31T04:23:42.727Z,2.7
2023-01-31T04:24:45.750Z,2.7
2023-01-31T04:25:48.746Z,2.7
2023-01-31T04:26:52.038Z,2.7
2023-01-31T04:27:55.234Z,2.7
2023-01-31T04:28:58.055Z,2.7
2023-01-31T04:30:00.221Z,2.7
2023-01-31T04:31:04.919Z,2.7
2023-01-31T04:32:08.728Z,2.7
2023-01-31T04:33:12.803Z,2.7
2023-01-31T04:34:15.941Z,2.7
2023-01-31T04:35:21.499Z,2.7
2023-01-31T04:36:24.779Z,2.7
2023-01-31T04:37:28.490Z,2.7
2023-01-31T04:38:32.385Z,2.7
2023-01-31T04:39:36.620Z,2.7
2023-01-31T04:40:39.567Z,2.7
2023-01-31T04:41:43.226Z,2.7
2023-01-31T04:42:46.325Z,2.8
2023-01-31T04:43:48.552Z,2.8
2023-01-31T04:44:51.636Z,2.8
2023-01-31T04:45:54.706Z,2.8
2023-01-31T04:46:58.351Z,2.8
2023-01-31T04:48:01.591Z,2.8
2023-01-31T04:49:05.010Z,2.8
2023-01-31T04:50:09.846Z,2.8
2023-01-31T04:51:13.177Z,2.8
2023-01-31T04:52:16.258Z,2.8
2023-01-31T04:53:19.761Z,2.8
2023-01-31T04:54:22.949Z,2.8
2023-01-31T04:55:25.813Z,2.8
2023-01-31T04:56:29.265Z,2.8
2023-01-31T04:57:33.756Z,2.8
2023-01-31T04:58:37.745Z,2.8
2023-01-31T04:59:40.671Z,2.8
2023-01-31T05:00:44.011Z,2.8
2023-01-31T05:01:47.402Z,2.8
2023-01-31T05:02:50.257Z,2.8
2023-01-31T05:03:53.766Z,2.8
2023-01-31T05:04:56.546Z,2.8
2023-01-31T05:06:00.314Z,2.8
2023-01-31T05:07:03.687Z,2.7
2023-01-31T05:08:07.935Z,2.7
2023-01-31T05:09:11.108Z,2.8
2023-01-31T05:10:14.569Z,2.8
2023-01-31T05:11:17.294Z,2.8
2023-01-31T05:12:20.434Z,2.8
2023-01-31T05:13:24.504Z,2.8
2023-01-31T05:14:27.598Z,2.8
2023-01-31T05:15:30.366Z,2.8
2023-01-31T05:16:34.487Z,2.8
2023-01-31T05:17:38.025Z,2.8
2023-01-31T05:18:41.207Z,2.8
2023-01-31T05:19:44.276Z,2.8
2023-01-31T05:20:47.322Z,2.8
2023-01-31T05:21:51.466Z,2.8
2023-01-31T05:22:55.207Z,2.8
2023-01-31T05:23:58.475Z,2.8
2023-01-31T05:25:01.696Z,2.8
2023-01-31T05:26:05.303Z,2.8
2023-01-31T05:27:08.642Z,2.8
2023-01-31T05:28:12.265Z,2.8
2023-01-31T05:29:16.341Z,2.8
2023-01-31T05:30:19.223Z,2.8
2023-01-31T05:31:23.527Z,2.8
2023-01-31T05:32:26.657Z,2.8
2023-01-31T05:33:33.049Z,2.8
2023-01-31T05:34:36.451Z,2.8
2023-01-31T05:35:40.096Z,2.8
2023-01-31T05:36:43.148Z,2.8
2023-01-31T05:37:46.778Z,2.8
2023-01-31T05:38:49.959Z,2.8
2023-01-31T05:39:53.007Z,2.8
2023-01-31T05:40:56.194Z,2.7
2023-01-31T05:41:59.187Z,2.7
2023-01-31T05:43:03.758Z,2.7
2023-01-31T05:44:07.554Z,2.7
2023-01-31T05:45:09.972Z,2.7
2023-01-31T05:46:13.360Z,2.7
2023-01-31T05:47:16.847Z,2.7
2023-01-31T05:48:19.875Z,2.8
2023-01-31T05:49:23.891Z,2.7
2023-01-31T05:50:27.238Z,2.7
2023-01-31T05:51:30.123Z,2.7
2023-01-31T05:52:33.934Z,2.7
2023-01-31T05:53:37.735Z,2.7
2023-01-31T05:54:41.244Z,2.6
2023-01-31T05:55:43.769Z,2.6
2023-01-31T05:56:47.525Z,2.7
2023-01-31T05:57:50.818Z,2.7
2023-01-31T05:58:53.719Z,2.7
2023-01-31T05:59:56.169Z,2.6
2023-01-31T06:00:59.086Z,2.6
2023-01-31T06:02:04.003Z,2.7
2023-01-31T06:03:07.578Z,2.7
2023-01-31T06:04:10.488Z,2.7
2023-01-31T06:05:13.640Z,2.7
2023-01-31T06:06:16.995Z,2.8
2023-01-31T06:07:20.051Z,2.8
2023-01-31T06:08:23.695Z,2.8
2023-01-31T06:09:27.192Z,2.8
2023-01-31T06:10:31.332Z,2.8
2023-01-31T06:11:35.246Z,2.8
2023-01-31T06:12:38.429Z,2.8
2023-01-31T06:13:42.135Z,2.8
2023-01-31T06:14:45.588Z,2.8
2023-01-31T06:15:48.658Z,2.8
2023-01-31T06:16:52.417Z,2.8
2023-01-31T06:17:55.237Z,2.8
2023-01-31T06:18:58.182Z,2.8
2023-01-31T06:20:02.218Z,2.8
2023-01-31T06:21:05.885Z,2.9
2023-01-31T06:22:08.966Z,2.8
2023-01-31T06:23:12.598Z,2.9
2023-01-31T06:24:15.671Z,2.9
2023-01-31T06:25:20.229Z,2.9
2023-01-31T06:26:23.905Z,2.9
2023-01-31T06:27:27.479Z,2.8
2023-01-31T06:28:33.075Z,2.8
2023-01-31T06:29:36.549Z,2.8
2023-01-31T06:30:40.578Z,2.8
2023-01-31T06:31:44.465Z,2.8
2023-01-31T06:32:48.187Z,2.8
2023-01-31T06:33:50.948Z,2.8
2023-01-31T06:34:53.383Z,2.8
2023-01-31T06:35:57.380Z,2.8
2023-01-31T06:36:59.926Z,2.8
2023-01-31T06:38:03.600Z,2.8
2023-01-31T06:39:07.304Z,2.9
2023-01-31T06:40:10.462Z,2.9
2023-01-31T06:41:14.260Z,2.9
2023-01-31T06:42:17.434Z,2.9
2023-01-31T06:43:20.232Z,2.9
2023-01-31T06:44:24.861Z,2.9
2023-01-31T06:45:30.595Z,3
2023-01-31T06:46:34.012Z,3
2023-01-31T06:47:38.051Z,3
2023-01-31T06:48:41.374Z,3
2023-01-31T06:49:44.093Z,3
2023-01-31T06:50:47.178Z,3
2023-01-31T06:51:50.837Z,3
2023-01-31T06:52:54.856Z,3
2023-01-31T06:53:58.736Z,3
2023-01-31T06:55:01.920Z,3
2023-01-31T06:56:05.028Z,3
2023-01-31T06:57:08.511Z,3.1
2023-01-31T06:58:11.254Z,3
2023-01-31T06:59:13.785Z,3.1
2023-01-31T07:00:17.673Z,3
2023-01-31T07:01:21.161Z,3
2023-01-31T07:02:24.396Z,3.1
2023-01-31T07:03:27.246Z,3.1
2023-01-31T07:04:31.923Z,3.1
2023-01-31T07:05:36.108Z,3.1
2023-01-31T07:06:40.149Z,3.1
2023-01-31T07:07:43.673Z,3.1
2023-01-31T07:08:46.836Z,3.2
2023-01-31T07:09:49.927Z,3.1
2023-01-31T07:10:53.729Z,3.2
2023-01-31T07:11:56.240Z,3.1
2023-01-31T07:12:59.880Z,3.1
2023-01-31T07:14:02.928Z,3.1
2023-01-31T07:15:06.354Z,3.2
2023-01-31T07:16:10.728Z,3.2
2023-01-31T07:17:14.635Z,3.1
2023-01-31T07:18:17.709Z,3.2
2023-01-31T07:19:21.070Z,3.2
2023-01-31T07:20:23.954Z,3.2
2023-01-31T07:21:27.241Z,3.2
2023-01-31T07:22:32.345Z,3.2
2023-01-31T07:23:35.773Z,3.2
2023-01-31T07:24:38.974Z,3.2
2023-01-31T07:25:42.959Z,3.3
2023-01-31T07:26:46.837Z,3.3
2023-01-31T07:27:50.301Z,3.2
2023-01-31T07:28:53.784Z,3.3
2023-01-31T07:29:56.874Z,3.3
2023-01-31T07:31:00.217Z,3.3
2023-01-31T07:32:03.982Z,3.3
2023-01-31T07:33:07.249Z,3.3
2023-01-31T07:34:10.325Z,3.3
2023-01-31T07:35:12.954Z,3.3
2023-01-31T07:36:16.225Z,3.3
2023-01-31T07:37:18.729Z,3.3
2023-01-31T07:38:22.173Z,3.3
2023-01-31T07:39:25.876Z,3.3
2023-01-31T07:40:28.988Z,3.3
2023-01-31T07:41:33.351Z,3.3
2023-01-31T07:42:37.109Z,3.4
2023-01-31T07:43:39.961Z,3.4
2023-01-31T07:44:43.431Z,3.4
2023-01-31T07:45:47.706Z,3.5
2023-01-31T07:46:51.016Z,3.5
2023-01-31T07:47:54.587Z,3.5
2023-01-31T07:48:57.948Z,3.5
2023-01-31T07:50:01.778Z,3.5
2023-01-31T07:51:05.191Z,3.5
2023-01-31T07:52:10.700Z,3.5
2023-01-31T07:53:13.966Z,3.5
2023-01-31T07:54:16.966Z,3.5
2023-01-31T07:55:22.727Z,3.5
2023-01-31T07:56:25.396Z,3.5
2023-01-31T07:57:28.825Z,3.5
2023-01-31T07:58:33.548Z,3.6
2023-01-31T07:59:36.646Z,3.6
2023-01-31T08:00:39.641Z,3.6
2023-01-31T08:01:43.480Z,3.6
2023-01-31T08:02:47.291Z,3.5
2023-01-31T08:03:51.541Z,3.6
2023-01-31T08:04:55.238Z,3.6
2023-01-31T08:05:58.389Z,3.6
2023-01-31T08:07:01.779Z,3.6
2023-01-31T08:08:05.218Z,3.6
2023-01-31T08:09:08.944Z,3.6
2023-01-31T08:10:12.036Z,3.6
2023-01-31T08:11:14.789Z,3.6
2023-01-31T08:12:18.276Z,3.7
2023-01-31T08:13:21.562Z,3.7
2023-01-31T08:14:24.739Z,3.7
2023-01-31T08:15:28.404Z,3.7
2023-01-31T08:16:33.358Z,3.7
2023-01-31T08:17:36.941Z,3.7
2023-01-31T08:18:40.657Z,3.7
2023-01-31T08:19:44.925Z,3.7
2023-01-31T08:20:47.822Z,3.7
2023-01-31T08:21:51.174Z,3.8
2023-01-31T08:22:54.345Z,3.8
2023-01-31T08:23:58.025Z,3.7
2023-01-31T08:25:01.501Z,3.7
2023-01-31T08:26:04.837Z,3.7
2023-01-31T08:27:07.943Z,3.7
2023-01-31T08:28:11.672Z,3.7
2023-01-31T08:29:15.056Z,3.7
2023-01-31T08:30:18.125Z,3.7
2023-01-31T08:31:21.631Z,3.8
2023-01-31T08:32:25.930Z,3.8
2023-01-31T08:33:30.506Z,3.8
2023-01-31T08:34:34.452Z,3.8
2023-01-31T08:35:37.646Z,3.9
2023-01-31T08:36:41.709Z,3.8
2023-01-31T08:37:45.166Z,3.8
2023-01-31T08:38:49.367Z,3.9
2023-01-31T08:39:51.832Z,3.8
2023-01-31T08:40:55.249Z,3.8
2023-01-31T08:41:58.231Z,3.8
2023-01-31T08:43:01.085Z,3.8
2023-01-31T08:44:06.316Z,3.8
2023-01-31T08:45:10.076Z,3.8
2023-01-31T08:46:13.387Z,3.8
2023-01-31T08:47:16.648Z,3.9
2023-01-31T08:48:20.165Z,3.9
2023-01-31T08:49:23.271Z,3.9
2023-01-31T08:50:31.397Z,3.9
2023-01-31T08:51:36.481Z,4
2023-01-31T08:52:39.898Z,4
2023-01-31T08:53:43.281Z,3.9
2023-01-31T08:54:47.150Z,4
2023-01-31T08:55:50.946Z,4
2023-01-31T08:56:54.303Z,4
2023-01-31T08:58:01.560Z,3.9
2023-01-31T08:59:04.922Z,3.9
2023-01-31T09:00:08.400Z,3.9
2023-01-31T09:01:11.770Z,4
2023-01-31T09:02:15.447Z,4
2023-01-31T09:03:18.251Z,4
2023-01-31T09:04:22.309Z,4
2023-01-31T09:05:25.729Z,4
2023-01-31T09:06:30.401Z,4
2023-01-31T09:07:34.680Z,4
2023-01-31T09:08:38.375Z,4.1
2023-01-31T09:09:42.024Z,4
2023-01-31T09:10:45.842Z,4
2023-01-31T09:11:48.949Z,4
2023-01-31T09:12:52.312Z,4
2023-01-31T09:13:55.672Z,3.9
2023-01-31T09:14:58.947Z,4
2023-01-31T09:16:02.747Z,3.9
2023-01-31T09:17:06.979Z,4
2023-01-31T09:18:09.694Z,4
2023-01-31T09:19:12.135Z,3.9
2023-01-31T09:20:15.445Z,4
2023-01-31T09:21:18.592Z,4
2023-01-31T09:22:22.061Z,4
2023-01-31T09:23:26.168Z,4.1
2023-01-31T09:24:29.936Z,4
2023-01-31T09:25:50.584Z,4
2023-01-31T09:26:54.591Z,4
2023-01-31T09:27:57.713Z,4.1
2023-01-31T09:29:01.156Z,4.1
2023-01-31T09:30:04.981Z,4.1
2023-01-31T09:31:09.074Z,4
2023-01-31T09:32:12.678Z,4.1
2023-01-31T09:33:16.115Z,4.1
2023-01-31T09:34:19.553Z,4.1
2023-01-31T09:35:24.133Z,4.1
2023-01-31T09:36:27.260Z,4.1
2023-01-31T09:37:32.197Z,4.1
2023-01-31T09:38:37.586Z,4.1
2023-01-31T09:39:40.669Z,4.1
2023-01-31T09:40:43.906Z,4.1
2023-01-31T09:41:47.635Z,4.1
2023-01-31T09:42:50.730Z,4
2023-01-31T09:43:54.488Z,4.1
2023-01-31T09:44:58.234Z,4.1
2023-01-31T09:46:01.716Z,4.2
2023-01-31T09:47:05.330Z,4.2
2023-01-31T09:48:08.447Z,4.2
2023-01-31T09:49:11.846Z,4.2
2023-01-31T09:50:15.217Z,4.2
2023-01-31T09:51:18.631Z,4.2
2023-01-31T09:52:22.248Z,4.2
2023-01-31T09:53:26.006Z,4.2
2023-01-31T09:54:31.958Z,4.3
2023-01-31T09:55:36.944Z,4.3
2023-01-31T09:56:40.044Z,4.3
2023-01-31T09:57:43.407Z,4.3
2023-01-31T09:58:46.415Z,4.3
2023-01-31T09:59:49.894Z,4.3
2023-01-31T10:00:53.081Z,4.3
2023-01-31T10:01:59.833Z,4.3
2023-01-31T10:03:03.293Z,4.3
2023-01-31T10:04:06.813Z,4.3
2023-01-31T10:05:10.402Z,4.3
2023-01-31T10:06:13.862Z,4.3
2023-01-31T10:07:18.043Z,4.4
2023-01-31T10:08:21.126Z,4.4
2023-01-31T10:09:24.782Z,4.5
2023-01-31T10:10:28.862Z,4.5
2023-01-31T10:11:32.962Z,4.5
2023-01-31T10:12:37.826Z,4.5
2023-01-31T10:13:41.276Z,4.5
2023-01-31T10:14:44.537Z,4.4
2023-01-31T10:15:48.208Z,4.4
2023-01-31T10:16:50.712Z,4.4
2023-01-31T10:17:54.189Z,4.5
2023-01-31T10:18:56.938Z,4.5
2023-01-31T10:19:59.686Z,4.5
2023-01-31T10:21:06.536Z,4.5
2023-01-31T10:22:09.968Z,4.5
2023-01-31T10:23:13.465Z,4.5
2023-01-31T10:24:16.815Z,4.5
2023-01-31T10:25:20.504Z,4.5
2023-01-31T10:26:24.583Z,4.5
2023-01-31T10:27:29.325Z,4.5
2023-01-31T10:28:33.869Z,4.5
2023-01-31T10:29:37.737Z,4.4
2023-01-31T10:30:41.189Z,4.4
2023-01-31T10:31:46.556Z,4.4
2023-01-31T10:32:50.038Z,4.4
2023-01-31T10:33:53.664Z,4.4
2023-01-31T10:34:56.382Z,4.5
2023-01-31T10:35:59.717Z,4.5
2023-01-31T10:37:02.609Z,4.5
2023-01-31T10:38:06.442Z,4.4
2023-01-31T10:39:10.617Z,4.4
2023-01-31T10:40:14.063Z,4.4
2023-01-31T10:41:17.502Z,4.4
2023-01-31T10:42:20.974Z,4.4
2023-01-31T10:43:24.366Z,4.4
2023-01-31T10:44:27.816Z,4.4
2023-01-31T10:45:34.059Z,4.3
2023-01-31T10:46:37.221Z,4.3
2023-01-31T10:47:40.599Z,4.3
2023-01-31T10:48:49.218Z,4.3
2023-01-31T10:49:52.309Z,4.3
2023-01-31T10:50:55.845Z,4.3
2023-01-31T10:51:58.799Z,4.2
2023-01-31T10:53:02.434Z,4.2
2023-01-31T10:54:05.855Z,4.2
2023-01-31T10:55:09.045Z,4.3
2023-01-31T10:56:12.838Z,4.2
2023-01-31T10:57:15.722Z,4.3
2023-01-31T10:58:19.748Z,4.2
2023-01-31T10:59:23.026Z,4.2
2023-01-31T11:00:26.457Z,4.2
2023-01-31T11:01:29.944Z,4.2
2023-01-31T11:02:34.368Z,4.2
2023-01-31T11:03:37.499Z,4.2
2023-01-31T11:04:40.860Z,4.3
2023-01-31T11:05:44.591Z,4.3
2023-01-31T11:06:48.220Z,4.3
2023-01-31T11:07:51.557Z,4.3
2023-01-31T11:08:54.061Z,4.3
2023-01-31T11:09:57.109Z,4.4
2023-01-31T11:11:00.652Z,4.4
2023-01-31T11:12:03.716Z,4.4
2023-01-31T11:13:07.163Z,4.4
2023-01-31T11:14:10.929Z,4.4
2023-01-31T11:15:14.006Z,4.3
2023-01-31T11:16:17.239Z,4.3
2023-01-31T11:17:20.970Z,4.3
2023-01-31T11:18:24.136Z,4.3
2023-01-31T11:19:27.423Z,4.2
2023-01-31T11:20:30.658Z,4.2
2023-01-31T11:21:34.123Z,4.2
2023-01-31T11:22:37.895Z,4.2
2023-01-31T11:23:41.325Z,4.2
2023-01-31T11:24:44.977Z,4.2
2023-01-31T11:25:48.639Z,4.2
2023-01-31T11:26:52.337Z,4.2
2023-01-31T11:27:55.414Z,4.1
2023-01-31T11:28:58.610Z,4.2
2023-01-31T11:30:02.940Z,4.2
2023-01-31T11:31:06.707Z,4.2
2023-01-31T11:32:10.093Z,4.2
2023-01-31T11:33:13.314Z,4.2
2023-01-31T11:34:16.740Z,4.2
2023-01-31T11:35:20.374Z,4.2
2023-01-31T11:36:23.561Z,4.2
2023-01-31T11:37:27.231Z,4.2
2023-01-31T11:38:31.002Z,4.2
2023-01-31T11:39:34.109Z,4.2
2023-01-31T11:40:37.915Z,4.2
2023-01-31T11:41:41.199Z,4.2
2023-01-31T11:42:44.744Z,4.2
2023-01-31T11:43:47.926Z,4.2
2023-01-31T11:44:51.697Z,4.2
2023-01-31T11:45:55.390Z,4.2
2023-01-31T11:46:58.439Z,4.2
2023-01-31T11:48:01.781Z,4.2
2023-01-31T11:49:04.941Z,4.2
2023-01-31T11:50:08.346Z,4.2
2023-01-31T11:51:11.791Z,4.2
2023-01-31T11:52:14.940Z,4.2
2023-01-31T11:53:18.396Z,4.2
2023-01-31T11:54:22.111Z,4.2
2023-01-31T11:55:25.631Z,4.2
2023-01-31T11:56:28.647Z,4.2
2023-01-31T11:57:32.027Z,4.2
2023-01-31T11:58:36.208Z,4.2
2023-01-31T11:59:39.590Z,4.2
2023-01-31T12:00:42.581Z,4.2
2023-01-31T12:01:46.063Z,4.2
2023-01-31T12:02:48.864Z,4.2
2023-01-31T12:04:06.372Z,4.3
2023-01-31T12:05:09.951Z,4.3
2023-01-31T12:06:13.599Z,4.3
2023-01-31T12:07:16.334Z,4.3
2023-01-31T12:08:20.347Z,4.3
2023-01-31T12:09:23.900Z,4.3
2023-01-31T12:10:26.866Z,4.3
2023-01-31T12:11:30.935Z,4.3
2023-01-31T12:12:34.357Z,4.3
2023-01-31T12:13:37.480Z,4.3
2023-01-31T12:14:41.113Z,4.4
2023-01-31T12:15:43.669Z,4.4
2023-01-31T12:16:47.375Z,4.4
2023-01-31T12:17:51.136Z,4.4
2023-01-31T12:18:54.594Z,4.4
2023-01-31T12:19:57.927Z,4.4
2023-01-31T12:21:00.761Z,4.4
2023-01-31T12:22:03.896Z,4.4
2023-01-31T12:23:07.465Z,4.4
2023-01-31T12:24:11.029Z,4.4
2023-01-31T12:25:14.222Z,4.5
2023-01-31T12:26:18.448Z,4.5
2023-01-31T12:27:21.896Z,4.5
2023-01-31T12:28:25.381Z,4.5
2023-01-31T12:29:28.735Z,4.5
2023-01-31T12:30:33.207Z,4.5
2023-01-31T12:31:37.125Z,4.5
2023-01-31T12:32:40.658Z,4.5
2023-01-31T12:33:44.453Z,4.5
2023-01-31T12:35:10.814Z,4.5
2023-01-31T12:36:14.187Z,4.6
2023-01-31T12:37:17.919Z,4.6
2023-01-31T12:38:20.981Z,4.5
2023-01-31T12:39:24.726Z,4.6
2023-01-31T12:40:32.195Z,4.6
2023-01-31T12:41:36.057Z,4.6
2023-01-31T12:42:39.757Z,4.5
2023-01-31T12:43:42.938Z,4.5
2023-01-31T12:44:45.842Z,4.6
2023-01-31T12:45:49.700Z,4.6
2023-01-31T12:47:13.079Z,4.5
2023-01-31T12:48:16.235Z,4.6
2023-01-31T12:49:20.148Z,4.5
2023-01-31T12:50:23.754Z,4.6
2023-01-31T12:51:26.777Z,4.6
2023-01-31T12:52:29.915Z,4.6
2023-01-31T12:53:33.933Z,4.6
2023-01-31T12:54:37.637Z,4.6
2023-01-31T12:55:42.084Z,4.6
2023-01-31T12:56:46.018Z,4.6
2023-01-31T12:57:49.425Z,4.6
2023-01-31T12:59:17.802Z,4.7
2023-01-31T13:00:20.883Z,4.7
2023-01-31T13:01:24.953Z,4.7
2023-01-31T13:02:29.064Z,4.7
2023-01-31T13:03:32.638Z,4.7
2023-01-31T13:04:36.430Z,4.7
2023-01-31T13:05:39.784Z,4.7
2023-01-31T13:06:44.134Z,4.7
2023-01-31T13:07:47.862Z,4.7
2023-01-31T13:09:10.118Z,4.7
2023-01-31T13:10:13.913Z,4.7
2023-01-31T13:11:17.633Z,4.7
2023-01-31T13:12:21.641Z,4.7
2023-01-31T13:13:24.741Z,4.8
2023-01-31T13:14:27.848Z,4.7
2023-01-31T13:15:31.157Z,4.8
2023-01-31T13:16:35.292Z,4.8
2023-01-31T13:17:38.060Z,4.8
2023-01-31T13:18:41.216Z,4.8
2023-01-31T13:19:45.629Z,4.9
2023-01-31T13:20:51.624Z,4.9
2023-01-31T13:21:55.759Z,4.9
2023-01-31T13:22:59.463Z,5
2023-01-31T13:24:03.273Z,4.9
2023-01-31T13:25:06.672Z,4.9
2023-01-31T13:26:10.323Z,5
2023-01-31T13:27:13.469Z,5
2023-01-31T13:28:17.500Z,5
2023-01-31T13:29:20.602Z,5
2023-01-31T13:30:24.343Z,5
2023-01-31T13:31:28.448Z,5
2023-01-31T13:32:33.060Z,5
2023-01-31T13:33:36.532Z,5
2023-01-31T13:34:40.201Z,5
2023-01-31T13:35:44.864Z,5.1
2023-01-31T13:36:48.823Z,5.1
2023-01-31T13:37:53.254Z,5.1
2023-01-31T13:38:57.352Z,5.1
2023-01-31T13:40:00.522Z,5.1
2023-01-31T13:41:03.680Z,5.1
2023-01-31T13:42:07.447Z,5.1
2023-01-31T13:43:10.797Z,5.1
2023-01-31T13:44:14.508Z,5.1
2023-01-31T13:45:18.367Z,5.1
2023-01-31T13:46:22.941Z,5.2
2023-01-31T13:47:26.690Z,5.2
2023-01-31T13:48:29.682Z,5.2
2023-01-31T13:49:33.319Z,5.2
2023-01-31T13:50:37.369Z,5.2
2023-01-31T13:51:41.203Z,5.2
2023-01-31T13:52:43.730Z,5.2
2023-01-31T13:53:47.134Z,5.2
2023-01-31T13:54:49.978Z,5.2
2023-01-31T13:55:52.806Z,5.2
2023-01-31T13:56:55.738Z,5.2
2023-01-31T13:58:00.850Z,5.2
2023-01-31T13:59:04.797Z,5.2
2023-01-31T14:00:09.500Z,5.3
2023-01-31T14:01:14.294Z,5.3
2023-01-31T14:02:18.176Z,5.3
2023-01-31T14:03:22.390Z,5.3
2023-01-31T14:04:26.949Z,5.3
2023-01-31T14:05:31.588Z,5.3
2023-01-31T14:06:35.745Z,5.3
2023-01-31T14:07:40.085Z,5.4
2023-01-31T14:08:44.494Z,5.4
2023-01-31T14:09:47.795Z,5.4
2023-01-31T14:10:53.643Z,5.4
2023-01-31T14:11:56.938Z,5.4
2023-01-31T14:13:00.304Z,5.5
2023-01-31T14:14:02.743Z,5.5
2023-01-31T14:15:06.405Z,5.5
2023-01-31T14:16:10.268Z,5.5
2023-01-31T14:17:13.424Z,5.5
2023-01-31T14:18:16.222Z,5.5
2023-01-31T14:19:18.687Z,5.5
2023-01-31T14:20:22.201Z,5.5
2023-01-31T14:21:25.886Z,5.5
2023-01-31T14:22:29.238Z,5.5
2023-01-31T14:23:33.192Z,5.6
2023-01-31T14:24:36.818Z,5.6
2023-01-31T14:25:40.168Z,5.6
2023-01-31T14:26:43.614Z,5.6
2023-01-31T14:27:46.011Z,5.6
2023-01-31T14:28:49.712Z,5.6
2023-01-31T14:29:53.382Z,5.6
2023-01-31T14:30:56.776Z,5.6
2023-01-31T14:31:59.837Z,5.6
2023-01-31T14:33:03.248Z,5.6
2023-01-31T14:34:06.216Z,5.6
2023-01-31T14:35:09.897Z,5.7
2023-01-31T14:36:14.085Z,5.6
2023-01-31T14:37:16.923Z,5.6
2023-01-31T14:38:20.209Z,5.6
2023-01-31T14:39:24.035Z,5.6
2023-01-31T14:40:26.488Z,5.6